x

New Dungeness - 17 Nm Ne Of Port Angeles, Wa (46088) Wave Buoy

12:20am - Tue 22nd Jan 2019 All times are PST. -8 hours from GMT.

  • Sig Wave height 2.0ft
  • Swell Direction
  • Peak Period 10s
  • Average Period 4s
  • Wind
    18mph, 20mph gusts
  • Sea Temp 47°f
  • Air Temp 44°f
  • Sea Pressure 1027.6mb
  • New Dungeness - 17 Nm Ne Of Port Angeles, Wa
  • New Dungeness - 17 Nm Ne Of Port Angeles, Wa

More Historic Weather Station data

Upgrade to MSW Pro to gain access to the past 30 days of data for over 8000 Wavebouys and Weather Stations around the globe.

Join

Comparision Forecast

View Surf forecast
   
Tue 01/22 12:20am 2ft 10s 4s 18 20 mph 1027.6mb 47f 44f
Mon 01/21 11:50pm 1.3ft 10s 4s 16 20 mph 1028mb 47f 44f
11:20pm 1.3ft 11s 3s 9 11 mph 1028.7mb 47f 44f
10:50pm 1ft 3s 3s 7 9 mph 1028.8mb 47f 44f
10:20pm 1ft 11s 3s 9 11 mph 1028.6mb 47f 44f
9:50pm 1ft 11s 3s 9 9 mph 1028.8mb 47f 44f
9:20pm 1ft 11s 3s 11 11 mph 1028.7mb 47f 44f
8:50pm 0.7ft  -  3s 11 13 mph 1028.4mb 47f 44f
8:20pm 0.3ft  -  3s 13 16 mph 1028.3mb 47f 45f
7:50pm 0.3ft  -  4s 13 16 mph 1028.5mb 47f 45f
7:20pm 0.3ft  -  4s 9 11 mph 1028.6mb 47f 45f
6:50pm 0.3ft  -  5s 9 11 mph 1028.5mb 47f 45f
6:20pm 0.3ft  -  5s 9 11 mph 1028.5mb 47f 45f
5:50pm 0.3ft  -  5s 9 9 mph 1028.5mb 47f 45f
5:20pm 0.3ft  -  5s 4 7 mph 1028.6mb 47f 45f
4:50pm 0.3ft  -  5s 4 4 mph 1028.6mb 47f 45f
4:20pm 0.7ft  -  4s 4 7 mph 1028.2mb 47f 44f
3:50pm 0.3ft  -  5s 4 4 mph 1028.1mb 47f 45f
3:20pm 0.7ft  -  6s 4 4 mph 1027.9mb 47f 45f
2:50pm 0.7ft  -  6s 2 4 mph 1027.8mb 47f 45f
2:20pm 0.7ft  -  6s 2 2 mph 1027.5mb 47f 45f
1:50pm 0.3ft  -  5s 2 4 mph 1027.4mb 47f 45f
1:20pm 0.7ft  -  6s 2 4 mph 1027.1mb 47f 45f
12:50pm 0.7ft  -  6s  -  2 mph 1027.3mb 47f 46f
12:20pm 0.7ft  -  6s 2 2 mph 1026.9mb 47f 45f
11:50am 0.7ft  -  7s 2 4 mph 1026.6mb 47f 45f
11:20am 0.7ft  -  6s 4 4 mph 1026.2mb 47f 45f
10:50am 0.7ft  -  5s 4 7 mph 1026.2mb 47f 44f
10:20am 0.7ft  -  5s 7 7 mph 1025.6mb 47f 44f
9:50am 0.3ft  -  5s 7 9 mph 1025.2mb 47f 44f
9:20am 0.7ft  -  6s 4 7 mph 1024mb 47f 44f
8:50am 0.3ft  -  5s 4 7 mph 1023.8mb 47f 44f
8:20am 0.7ft  -  5s 7 7 mph 1023.6mb 47f 44f
7:50am 0.7ft  -  4s 9 11 mph 1022.8mb 47f 44f
7:20am 0.7ft  -  5s 9 11 mph 1022.1mb 47f 44f
6:50am 0.7ft  -  5s 11 13 mph 1021.7mb 47f 44f
6:20am 0.7ft  -  4s 7 9 mph 1021.4mb 47f 44f
5:50am 0.7ft  -  4s 7 9 mph 1020.7mb 47f 44f
5:20am 0.7ft  -  5s 4 7 mph 1020.4mb 47f 44f
4:50am 0.3ft  -  5s 7 7 mph 1020mb 47f 43f
4:20am 0.7ft  -  5s 7 9 mph 1019.7mb 47f 44f
3:50am 0.7ft  -  4s 7 9 mph 1019.3mb 47f 44f
3:20am 0.7ft  -  4s 9 11 mph 1019mb 47f 44f
2:50am 0.7ft  -  4s 11 13 mph 1018.7mb 47f 44f
2:20am 1ft 7s 5s 7 9 mph 1018.4mb 47f 45f
1:50am 1ft 8s 5s 4 7 mph 1018mb 47f 45f
1:20am 1.6ft 8s 6s 4 4 mph 1017.7mb 47f 44f
12:50am 2.5ft 9s 6s 4 7 mph 1017.4mb 47f 44f
12:20am 2.5ft 10s 7s 4 4 mph 1017.3mb 47f 45f
Sun 01/20 11:50pm 2.5ft 10s 8s 4 7 mph 1017mb 47f 44f
11:20pm 2.5ft 9s 8s 7 7 mph 1016.9mb 47f 45f
10:50pm 2ft 10s 8s 7 7 mph 1016.4mb 47f 45f
10:20pm 2ft 10s 9s 7 7 mph 1016.1mb 47f 45f
9:50pm 1.3ft 11s 8s 4 4 mph 1015.7mb 47f 46f
9:20pm 1ft 10s 8s 4 4 mph 1015.3mb 47f 46f
8:50pm 1ft 11s 8s 4 4 mph 1015.1mb 47f 46f
8:20pm 0.7ft  -  7s 4 4 mph 1014.8mb 47f 46f
7:50pm 0.7ft  -  6s 2 4 mph 1014.6mb 47f 46f
7:20pm 0.3ft  -  5s 2 4 mph 1014.4mb 47f 46f
6:50pm 0.7ft  -  5s 2 4 mph 1014.3mb 47f 45f
6:20pm 0.7ft  -  4s 2 4 mph 1014.2mb 47f 45f
5:50pm 0.7ft  -  4s  -  0 mph 1013.8mb 47f 45f
5:20pm 0.7ft  -  4s 4 4 mph 1013.6mb 47f 45f
4:50pm 0.7ft  -  4s 4 4 mph 1013.3mb 47f 45f
4:20pm 1ft 11s 4s 4 7 mph 1013mb 47f 46f
3:50pm 1ft 11s 4s 7 9 mph 1012.9mb 47f 45f
3:20pm 1ft 10s 4s 4 7 mph 1012.7mb 47f 46f
2:50pm 1ft 3s 4s 4 4 mph 1012.7mb 47f 46f
2:20pm 1ft 10s 4s 7 9 mph 1012.7mb 47f 45f
1:50pm 1.3ft 11s 4s 9 11 mph 1012.7mb 47f 45f
1:20pm 1.3ft 11s 4s 13 18 mph 1012.8mb 47f 44f
12:50pm 1ft 11s 3s 13 18 mph 1012.8mb 47f 44f
12:20pm 1ft 11s 3s 13 20 mph 1012.8mb 47f 44f
11:50am 1ft 11s 4s 13 16 mph 1013.1mb 47f 44f
11:20am 1ft 11s 4s 11 13 mph 1013.5mb 47f 43f
10:50am 1ft 11s 3s 16 18 mph 1013.7mb 47f 43f
10:20am 1ft 12s 3s 18 22 mph 1013.6mb 47f 43f
9:50am  -   -   -  20 20 mph 1013.7mb 47f 44f
9:20am 1ft 24s 4s 18 20 mph 1013.8mb 47f 44f
8:50am 0.7ft  -  3s 16 18 mph 1014mb 47f 44f
8:20am  -   -   -  13 16 mph 1014.2mb 47f 44f
7:50am 1ft 13s 3s 13 16 mph 1014.6mb 47f 44f
7:20am 1ft 11s 3s 13 16 mph 1014.8mb 47f 44f
6:50am 1ft 13s 5s 13 16 mph 1015mb 47f 44f
6:20am 0.7ft  -  5s 11 16 mph 1015.6mb 47f 45f
5:50am 1ft 13s 5s 9 11 mph 1015.8mb 47f 45f
5:20am 0.7ft  -  5s 7 9 mph 1016.3mb 47f 45f
4:50am 0.7ft  -  5s 7 9 mph 1016.7mb 47f 45f
4:20am 0.7ft  -  5s 7 7 mph 1017.1mb 47f 45f
3:50am 1ft 12s 4s 7 7 mph 1017.4mb 47f 46f
3:20am 1ft 11s 4s 7 9 mph 1017.7mb 47f 46f
2:50am 1.3ft 12s 4s 7 7 mph 1018.2mb 47f 46f
2:20am 1.6ft 6s 4s 4 7 mph 1018.6mb 47f 46f
1:50am 1.6ft 5s 5s 4 4 mph 1019.1mb 47f 46f
1:20am 2.5ft 7s 5s 4 7 mph 1019.5mb 47f 46f
12:50am 2.5ft 7s 5s 7 9 mph 1019.9mb 47f 46f
12:20am 2.5ft 11s 6s 9 11 mph 1020.2mb 47f 46f
Sat 01/19 11:50pm 2.5ft 10s 6s 7 9 mph 1020.7mb 47f 46f
11:20pm 2.5ft 12s 7s 4 7 mph 1020.8mb 47f 47f
10:50pm 2ft 13s 7s 4 4 mph 1020.8mb 47f 46f
10:20pm 2.5ft 13s 8s 7 7 mph 1021.1mb 47f 46f
9:50pm 2.5ft 8s 8s 7 9 mph 1020.9mb 47f 47f
9:20pm 2ft 11s 8s 4 7 mph 1020.8mb 47f 47f
8:50pm 2ft 11s 8s  -  2 mph 1020.9mb 47f 47f
8:20pm 1.3ft 11s 6s  -  2 mph 1020.8mb 47f 47f
7:50pm 1ft 11s 7s 4 4 mph 1020.9mb 47f 47f
7:20pm 1ft 11s 6s 7 9 mph 1020.9mb 47f 47f
6:50pm 1ft 15s 6s 4 7 mph 1021mb 47f 47f
6:20pm 1ft 14s 6s 4 4 mph 1020.9mb 47f 47f
5:50pm 1ft 14s 5s 2 4 mph 1020.9mb 47f 47f
5:20pm 1ft 10s 6s 7 11 mph 1020.6mb 47f 47f
4:50pm 1ft 14s 5s 11 16 mph 1020.6mb 47f 48f
4:20pm 1ft 15s 4s 9 11 mph 1020.5mb 47f 49f
3:50pm 1ft 7s 4s 7 9 mph 1020mb 47f 49f
2:50pm 1ft 14s 4s 4 7 mph 1019.4mb 47f 48f
2:20pm 1ft 14s 4s 9 9 mph 1019.3mb 47f 47f
1:50pm 1.3ft 4s 4s 9 16 mph 1019mb 47f 48f
1:20pm 1.3ft 4s 4s 4 7 mph 1018.4mb 47f 49f
12:50pm 1.3ft 3s 4s 4 4 mph 1018.3mb 47f 48f
12:20pm 1.3ft 3s 3s 9 11 mph 1018.2mb 47f 47f
11:50am 1.3ft 3s 3s 9 13 mph 1018.1mb 47f 49f
11:20am 1.3ft 3s 3s 13 18 mph 1018mb 47f 50f
10:50am 1.3ft 4s 3s 13 16 mph 1017.7mb 47f 49f
10:20am 1.3ft 4s 4s 16 18 mph 1017.8mb 47f 49f
9:50am 1.6ft 4s 4s 13 16 mph 1017.3mb 47f 49f
9:20am 1.6ft 4s 4s 11 13 mph 1016.9mb 47f 48f
8:50am 2ft 4s 4s 13 18 mph 1016.7mb 47f 49f
8:20am 1.6ft 3s 3s 18 20 mph 1016.1mb 47f 49f
7:50am 1.3ft 3s 3s 16 20 mph 1015.5mb 47f 49f
7:20am 1.6ft 3s 3s 13 16 mph 1015mb 47f 49f
6:50am 1.3ft 4s 3s 13 16 mph 1014.7mb 47f 49f
6:20am 1.6ft 3s 3s 16 18 mph 1014.5mb 47f 49f
5:50am 2ft 3s 3s 16 20 mph 1014mb 47f 49f
5:20am 2.5ft 3s 3s 18 22 mph 1013.4mb 47f 50f
4:50am 2.5ft 4s 3s 20 22 mph 1012.9mb 47f 50f
4:20am 2.5ft 3s 3s 22 25 mph 1012.4mb 47f 50f
3:50am 2.5ft 3s 3s 25 31 mph 1011.5mb 47f 50f
3:20am 2.5ft 5s 4s 27 31 mph 1010.6mb 47f 51f
2:50am 2.5ft 6s 5s 16 27 mph 1010.2mb 47f 49f
2:20am 2.5ft 6s 5s 4 7 mph 1010mb 47f 47f
1:50am 3.5ft 5s 4s 2 4 mph 1008.6mb 47f 47f
1:20am 3.5ft 6s 5s 16 18 mph 1007.6mb 47f 48f
12:50am 4ft 6s 4s 20 25 mph 1007.2mb 47f 47f
12:20am 4.5ft 6s 5s 27 31 mph 1006.2mb 47f 47f
Fri 01/18 11:50pm 5ft 6s 5s 27 31 mph 1005.9mb 47f 47f
11:20pm 5ft 5s 4s 27 36 mph 1005.1mb 47f 47f
10:50pm 5ft 5s 4s 34 40 mph 1004.5mb 47f 47f
10:20pm 5ft 5s 4s 34 40 mph 1004.4mb 47f 47f
9:50pm 6ft 5s 5s 34 40 mph 1004.2mb 47f 47f
9:20pm 5ft 5s 4s 34 47 mph 1004.4mb 47f 47f
8:50pm 4.5ft 5s 4s 38 47 mph 1004.4mb 47f 47f
8:20pm 4.5ft 5s 4s 34 40 mph 1005.8mb 47f 47f
7:50pm 5ft 5s 4s 36 47 mph 1005.3mb 47f 47f
7:20pm 5.5ft 5s 4s 31 38 mph 1007.5mb 47f 47f
6:50pm 4.5ft 5s 4s 36 45 mph 1006.9mb 47f 48f
6:20pm 4.5ft 5s 4s 34 40 mph 1008.2mb 47f 48f
5:50pm 4.5ft 5s 4s 36 43 mph 1008.3mb 47f 48f
5:20pm 4ft 4s 4s 36 43 mph 1009.2mb 47f 49f
4:50pm 4ft 5s 4s 38 45 mph 1009.6mb 47f 49f
4:20pm 3.5ft 5s 4s 34 40 mph 1010.9mb 47f 48f
3:50pm 3.5ft 4s 4s 34 40 mph 1011.7mb 47f 48f
3:20pm 3ft 4s 4s 27 34 mph 1013mb 47f 48f
2:50pm 2.5ft 4s 4s 25 31 mph 1013.4mb 47f 48f
2:20pm 2ft 4s 3s 22 29 mph 1013.9mb 47f 48f
1:50pm 1.6ft 4s 3s 13 16 mph 1014.7mb 47f 48f
1:20pm 1.6ft 4s 3s 13 18 mph 1015.3mb 47f 47f
12:50pm 1.6ft 4s 3s 9 11 mph 1015.6mb 47f 47f
12:20pm 1.3ft 4s 3s 7 7 mph 1016.1mb 47f 47f
11:50am 1.3ft 4s 3s 9 11 mph 1016.5mb 47f 47f
11:20am 1.3ft 3s 3s 7 9 mph 1016.8mb 47f 47f
10:50am 1.3ft 3s 3s 7 9 mph 1017.1mb 47f 47f
10:20am 1.3ft 3s 3s 16 18 mph 1016.8mb 47f 47f
9:50am 1ft 2s 3s 16 18 mph 1017mb 47f 47f
9:20am 0.7ft  -  3s 16 18 mph 1016.9mb 47f 47f